Time;durP1;ratioP1;P1;durP2;ratioP2;P2;SDS_P1;SDS_P2;PMS_P1;PMS_P2;Temp;Humidity;BMP_temperature;BMP_pressure;BME280_temperature;BME280_humidity;BME280_pressure;Samples;Min_cycle;Max_cycle;Signal;HPM_P1;HPM_P2
2022/06/17 00:01:28;;;;;;;4.80;2.78;;;;;;;;;;5018622;28;20135;-86
2022/06/17 00:03:54;;;;;;;6.13;2.95;;;;;;;;;;5018657;28;20030;-84
2022/06/17 00:06:21;;;;;;;5.30;2.67;;;;;;;;;;5019815;28;20057;-84
2022/06/17 00:08:49;;;;;;;8.25;3.08;;;;;;;;;;5019421;28;20018;-84
2022/06/17 00:11:35;;;;;;;3.80;2.90;;;;;;;;;;5019582;28;20104;-83
2022/06/17 00:14:02;;;;;;;4.85;3.08;;;;;;;;;;5023903;28;20487;-84
2022/06/17 00:16:29;;;;;;;7.72;3.08;;;;;;;;;;5018501;28;20088;-84
2022/06/17 00:18:55;;;;;;;5.40;2.80;;;;;;;;;;5019726;28;20030;-83
2022/06/17 00:21:31;;;;;;;8.50;3.53;;;;;;;;;;5017356;28;20248;-83
2022/06/17 00:23:59;;;;;;;3.78;2.97;;;;;;;;;;5004435;28;20040;-82
2022/06/17 00:26:25;;;;;;;;;;;;;;;;;;5020706;28;20498;-83
2022/06/17 00:28:51;;;;;;;6.75;2.67;;;16.20;68.90;;;;;;5014644;28;19905;-83
2022/06/17 00:31:16;;;;;;;7.07;3.83;;;15.70;72.10;;;;;;5015398;28;20081;-84
2022/06/17 00:33:43;;;;;;;8.55;3.33;;;15.60;72.10;;;;;;4997341;28;20030;-84
2022/06/17 00:36:15;;;;;;;7.47;2.97;;;15.60;72.40;;;;;;5015052;28;20430;-83
2022/06/17 00:38:41;;;;;;;5.40;2.60;;;15.60;72.70;;;;;;5014706;28;20030;-82
2022/06/17 00:41:25;;;;;;;6.88;3.17;;;15.60;72.70;;;;;;4997320;28;20025;-83
2022/06/17 00:43:51;;;;;;;5.43;3.30;;;15.60;72.50;;;;;;5017364;28;20022;-83
2022/06/17 00:46:33;;;;;;;10.23;3.72;;;15.60;72.60;;;;;;5015482;28;20379;-82
2022/06/17 00:49:20;;;;;;;9.43;3.50;;;15.50;72.70;;;;;;5014296;28;20132;-83
2022/06/17 00:52:02;;;;;;;8.25;3.63;;;15.60;72.70;;;;;;5014591;28;20426;-81
2022/06/17 00:55:01;;;;;;;8.93;4.32;;;15.50;72.90;;;;;;5014417;28;20032;-83
2022/06/17 00:57:36;;;;;;;9.43;3.90;;;15.50;73.10;;;;;;4996443;28;20022;-82
2022/06/17 01:00:04;;;;;;;5.65;3.35;;;15.50;73.80;;;;;;5014293;28;20026;-82
2022/06/17 01:02:34;;;;;;;5.28;3.60;;;15.50;73.70;;;;;;5014686;28;20022;-81
2022/06/17 01:05:02;;;;;;;6.38;3.40;;;15.40;73.80;;;;;;5005254;28;20494;-81
2022/06/17 01:07:36;;;;;;;6.00;3.33;;;15.40;73.70;;;;;;5014191;28;20097;-82
2022/06/17 01:10:09;;;;;;;9.55;3.58;;;15.40;74.00;;;;;;5014205;28;20033;-83
2022/06/17 01:12:37;;;;;;;9.25;3.60;;;15.40;73.80;;;;;;5012651;28;20030;-83
2022/06/17 01:15:06;;;;;;;9.25;3.42;;;15.40;74.10;;;;;;5009542;28;20027;-83
2022/06/17 01:17:32;;;;;;;9.32;3.78;;;15.40;73.90;;;;;;5012718;28;20053;-82
2022/06/17 01:20:01;;;;;;;4.57;3.13;;;15.40;73.80;;;;;;5014596;28;20018;-83
2022/06/17 01:22:50;;;;;;;8.75;3.22;;;15.40;74.00;;;;;;5014137;28;20041;-84
2022/06/17 01:25:39;;;;;;;9.27;3.15;;;15.50;74.10;;;;;;4996250;28;20101;-83
2022/06/17 01:28:08;;;;;;;8.65;3.15;;;15.50;74.00;;;;;;5014160;28;20030;-82
2022/06/17 01:30:42;;;;;;;7.97;3.35;;;15.50;74.20;;;;;;5013835;28;20072;-82
2022/06/17 01:33:17;;;;;;;5.53;3.17;;;15.50;74.00;;;;;;5012745;28;20487;-82
2022/06/17 01:35:59;;;;;;;8.93;3.30;;;15.60;74.00;;;;;;5001315;28;20025;-82
2022/06/17 01:38:26;;;;;;;6.50;3.40;;;15.60;74.00;;;;;;5015527;28;20057;-82
2022/06/17 01:40:55;;;;;;;12.65;3.42;;;15.60;73.80;;;;;;4998005;28;20037;-83
2022/06/17 01:43:28;;;;;;;5.22;3.08;;;15.60;73.90;;;;;;4997753;28;20060;-83
2022/06/17 01:45:59;;;;;;;6.22;2.92;;;15.70;73.80;;;;;;5001005;28;20026;-83
2022/06/17 01:48:29;;;;;;;5.88;3.22;;;15.70;73.90;;;;;;5014612;28;20026;-85
2022/06/17 01:50:57;;;;;;;6.93;2.90;;;15.70;74.00;;;;;;5012561;28;20026;-83
2022/06/17 01:53:28;;;;;;;7.57;3.80;;;15.80;73.90;;;;;;4995020;28;20394;-83
2022/06/17 01:56:02;;;;;;;4.15;2.88;;;15.80;73.90;;;;;;4996051;28;20061;-83
2022/06/17 01:58:40;;;;;;;4.90;2.58;;;15.90;73.80;;;;;;5001288;28;20041;-82
2022/06/17 02:01:07;;;;;;;6.38;2.90;;;15.90;73.50;;;;;;5023546;28;20025;-83
2022/06/17 02:03:40;;;;;;;;;;;16.00;73.60;;;;;;5013759;28;20022;-84
2022/06/17 02:06:28;;;;;;;4.75;3.03;;;15.90;73.10;;;;;;5013233;28;19913;-84
2022/06/17 02:08:54;;;;;;;5.65;3.03;;;16.00;73.60;;;;;;5013060;28;20156;-83
2022/06/17 02:11:21;;;;;;;4.28;3.10;;;15.90;73.90;;;;;;5010231;28;20096;-83
2022/06/17 02:13:47;;;;;;;7.38;3.17;;;16.00;73.90;;;;;;5013099;28;20026;-84
2022/06/17 02:16:14;;;;;;;4.05;2.85;;;16.00;73.90;;;;;;4997331;28;20064;-82
2022/06/17 02:18:42;;;;;;;8.15;3.60;;;16.10;73.90;;;;;;5013560;28;20484;-82
2022/06/17 02:21:21;;;;;;;4.28;2.60;;;16.10;73.90;;;;;;5015066;28;20054;-84
2022/06/17 02:23:47;;;;;;;7.13;3.25;;;16.10;73.80;;;;;;4995436;28;20386;-83
2022/06/17 02:26:14;;;;;;;3.75;2.53;;;16.10;73.60;;;;;;5015296;28;20082;-82
2022/06/17 02:28:42;;;;;;;4.32;2.45;;;16.20;73.50;;;;;;5017390;28;20026;-82
2022/06/17 02:31:08;;;;;;;5.57;2.50;;;16.20;73.50;;;;;;5018859;28;20010;-81
2022/06/17 02:33:37;;;;;;;7.72;3.13;;;16.30;73.70;;;;;;5015058;28;20036;-83
2022/06/17 02:36:14;;;;;;;5.22;2.75;;;16.30;74.00;;;;;;4994188;28;20080;-83
2022/06/17 02:38:40;;;;;;;;;;;16.40;73.90;;;;;;5013503;28;20064;-84
2022/06/17 02:41:12;;;;;;;8.30;2.75;;;16.60;73.30;;;;;;5012820;28;19909;-83
2022/06/17 02:43:49;;;;;;;4.15;2.92;;;16.70;72.60;;;;;;5012451;28;20166;-84
2022/06/17 02:46:28;;;;;;;4.53;2.60;;;16.90;72.10;;;;;;4999685;28;20053;-83
2022/06/17 02:49:00;;;;;;;4.28;3.03;;;17.10;71.60;;;;;;5014617;28;20030;-82
2022/06/17 02:51:39;;;;;;;3.45;2.70;;;17.20;71.10;;;;;;4998331;28;20502;-82
2022/06/17 02:54:07;;;;;;;4.75;2.63;;;17.30;70.90;;;;;;5011204;28;20042;-82
2022/06/17 02:56:35;;;;;;;7.05;2.55;;;17.20;71.10;;;;;;4994961;28;20018;-82
2022/06/17 02:59:52;;;;;;;4.20;2.47;;;17.00;71.30;;;;;;5012509;28;20025;-82
2022/06/17 03:02:34;;;;;;;10.85;3.38;;;17.00;71.70;;;;;;4993521;28;21079;-83
2022/06/17 03:05:01;;;;;;;4.72;2.63;;;17.00;72.00;;;;;;5012127;28;20076;-83
2022/06/17 03:07:30;;;;;;;6.07;2.42;;;17.20;71.80;;;;;;5012985;28;20045;-83
2022/06/17 03:09:55;;;;;;;5.07;2.83;;;17.40;71.20;;;;;;5012869;28;20426;-84
2022/06/17 03:12:26;;;;;;;8.90;3.00;;;17.70;70.40;;;;;;5012935;28;20045;-83
2022/06/17 03:15:08;;;;;;;6.82;2.80;;;17.80;69.50;;;;;;5011118;28;20065;-84
2022/06/17 03:17:39;;;;;;;5.72;2.95;;;17.90;69.30;;;;;;5003388;28;20411;-84
2022/06/17 03:20:07;;;;;;;5.93;3.08;;;17.80;69.10;;;;;;5011000;28;20022;-83
2022/06/17 03:22:35;;;;;;;6.38;2.70;;;17.60;69.60;;;;;;5004587;28;20136;-84
2022/06/17 03:25:24;;;;;;;7.35;3.35;;;17.60;69.70;;;;;;5012485;28;20080;-84
2022/06/17 03:27:53;;;;;;;9.20;2.85;;;17.40;70.30;;;;;;5006936;28;20029;-84
2022/06/17 03:30:27;;;;;;;12.55;2.78;;;17.40;70.80;;;;;;4994669;28;20052;-83
2022/06/17 03:33:20;;;;;;;7.40;3.08;;;17.50;70.90;;;;;;5012207;28;20049;-83
2022/06/17 03:35:50;;;;;;;7.28;3.38;;;17.60;70.60;;;;;;5011930;28;20088;-84
2022/06/17 03:38:31;;;;;;;6.03;3.03;;;17.80;70.80;;;;;;4994593;28;20026;-82
2022/06/17 03:41:05;;;;;;;7.72;3.25;;;18.00;69.80;;;;;;4993396;28;20487;-83
2022/06/17 03:43:38;;;;;;;6.72;2.45;;;18.10;69.40;;;;;;5000082;28;20484;-83
2022/06/17 03:46:06;;;;;;;5.63;2.60;;;18.20;69.10;;;;;;5012303;28;20037;-84
2022/06/17 03:49:00;;;;;;;7.53;2.83;;;18.30;68.80;;;;;;4999772;28;20049;-84
2022/06/17 03:51:27;;;;;;;5.40;2.50;;;18.20;69.00;;;;;;5016070;28;20025;-83
2022/06/17 03:53:53;;;;;;;5.68;3.33;;;18.20;68.90;;;;;;5012544;28;20030;-80
2022/06/17 03:56:26;;;;;;;8.80;3.42;;;18.20;69.30;;;;;;5013686;28;20112;-82
2022/06/17 03:58:54;;;;;;;9.88;2.95;;;18.20;69.40;;;;;;5016512;28;20061;-83
2022/06/17 04:01:33;;;;;;;4.63;2.28;;;18.10;69.30;;;;;;5015938;28;20325;-84
2022/06/17 04:04:03;;;;;;;4.95;2.55;;;18.20;69.50;;;;;;5005566;28;20029;-84
2022/06/17 04:06:38;;;;;;;5.78;2.85;;;18.20;70.00;;;;;;5014104;28;20049;-83
2022/06/17 04:09:20;;;;;;;9.80;2.70;;;18.30;69.70;;;;;;5006046;28;20110;-84
2022/06/17 04:11:54;;;;;;;4.38;2.80;;;18.30;69.50;;;;;;5015153;28;20021;-85
2022/06/17 04:14:23;;;;;;;7.18;2.92;;;18.40;69.50;;;;;;5016038;28;20029;-84
2022/06/17 04:16:56;;;;;;;4.60;2.50;;;18.50;69.00;;;;;;5015154;28;20384;-83
2022/06/17 04:19:25;;;;;;;4.80;2.10;;;18.70;69.00;;;;;;5015454;28;20034;-83
2022/06/17 04:21:52;;;;;;;3.83;2.30;;;18.90;68.80;;;;;;5018231;28;20026;-86
2022/06/17 04:24:24;;;;;;;4.18;2.25;;;19.00;67.60;;;;;;5020499;28;20018;-85
2022/06/17 04:27:01;;;;;;;5.55;2.10;;;19.00;67.70;;;;;;5013199;28;20022;-84
2022/06/17 04:29:40;;;;;;;3.33;2.05;;;19.10;67.50;;;;;;5010409;28;20440;-85
2022/06/17 04:32:16;;;;;;;5.25;2.33;;;19.20;67.10;;;;;;5019556;28;20109;-83
2022/06/17 04:34:42;;;;;;;4.03;2.25;;;19.30;67.40;;;;;;5020785;28;20037;-85
2022/06/17 04:37:19;;;;;;;3.90;1.90;;;19.30;66.90;;;;;;5000048;28;20022;-83
2022/06/17 04:39:54;;;;;;;4.63;1.88;;;19.40;66.00;;;;;;5022166;28;20078;-84
2022/06/17 04:42:33;;;;;;;5.05;2.00;;;19.40;66.50;;;;;;5017437;28;20026;-84
2022/06/17 04:45:00;;;;;;;3.13;2.00;;;19.40;66.80;;;;;;5002749;28;20097;-84
2022/06/17 04:47:26;;;;;;;6.88;1.90;;;19.40;66.80;;;;;;5023165;28;20022;-83
2022/06/17 04:50:04;;;;;;;3.83;1.67;;;19.40;66.40;;;;;;5020013;28;20026;-82
2022/06/17 04:52:37;;;;;;;4.13;2.58;;;19.50;66.20;;;;;;5018203;28;20064;-83
2022/06/17 04:55:10;;;;;;;7.82;3.40;;;19.60;66.10;;;;;;5016573;28;20030;-83
2022/06/17 04:57:38;;;;;;;5.93;2.40;;;19.70;66.10;;;;;;5015665;28;20042;-82
2022/06/17 05:00:05;;;;;;;6.20;2.08;;;19.90;65.20;;;;;;5016635;28;20045;-83
2022/06/17 05:02:33;;;;;;;2.80;2.03;;;19.90;65.30;;;;;;5011492;28;20064;-83
2022/06/17 05:05:05;;;;;;;3.13;1.95;;;19.90;64.60;;;;;;5009878;28;20427;-83
2022/06/17 05:07:39;;;;;;;4.53;2.03;;;20.10;64.50;;;;;;5013294;28;20061;-84
2022/06/17 05:10:10;;;;;;;3.30;1.90;;;20.30;64.50;;;;;;4996418;28;20475;-84
2022/06/17 05:12:45;;;;;;;3.28;1.42;;;20.50;63.50;;;;;;5014147;28;20514;-83
2022/06/17 05:15:18;;;;;;;7.72;2.60;;;21.00;61.60;;;;;;5014187;28;20025;-83
2022/06/17 05:17:44;;;;;;;9.63;2.33;;;21.60;59.90;;;;;;4999300;28;20033;-82
2022/06/17 05:20:17;;;;;;;2.42;1.55;;;22.30;58.80;;;;;;5014146;28;20057;-86
2022/06/17 05:22:54;;;;;;;3.85;1.15;;;23.00;56.80;;;;;;5014558;28;20097;-85
2022/06/17 05:25:25;;;;;;;2.75;1.73;;;23.80;54.60;;;;;;5014520;28;20022;-85
2022/06/17 05:27:51;;;;;;;2.10;1.52;;;24.60;52.60;;;;;;5014305;28;20065;-85
2022/06/17 05:30:17;;;;;;;11.60;2.55;;;25.80;51.00;;;;;;5014354;28;20030;-85
2022/06/17 05:32:47;;;;;;;9.30;4.57;;;27.20;48.70;;;;;;5014049;28;20026;-82
2022/06/17 05:35:13;;;;;;;2.08;1.00;;;;;;;;;;5013783;28;20105;-83
2022/06/17 05:37:39;;;;;;;2.08;1.30;;;;;;;;;;5013903;28;20057;-82
2022/06/17 05:40:08;;;;;;;6.47;1.52;;;28.20;46.40;;;;;;5014290;28;20033;-84
2022/06/17 05:42:35;;;;;;;4.85;1.33;;;28.80;43.00;;;;;;5012408;28;20026;-84
2022/06/17 05:45:00;;;;;;;0.90;0.90;;;28.90;43.00;;;;;;5013898;28;20102;-85
2022/06/17 05:47:26;;;;;;;1.45;0.85;;;29.00;41.80;;;;;;5013955;28;20507;-86
2022/06/17 05:49:52;;;;;;;1.83;1.45;;;;;;;;;;5013770;28;20450;-83
2022/06/17 05:52:19;;;;;;;5.23;1.30;;;;;;;;;;5015394;28;20030;-86
2022/06/17 05:54:45;;;;;;;3.22;1.15;;;;;;;;;;5013742;28;20329;-84
2022/06/17 05:57:11;;;;;;;4.82;1.27;;;;;;;;;;5015771;28;20021;-84
2022/06/17 05:59:37;;;;;;;7.32;1.50;;;;;;;;;;4996348;28;20034;-86
2022/06/17 06:02:04;;;;;;;3.00;1.37;;;;;;;;;;5015849;28;20037;-83
2022/06/17 06:04:31;;;;;;;3.22;1.10;;;;;;;;;;5016285;28;20072;-85
2022/06/17 06:06:57;;;;;;;3.97;1.50;;;;;;;;;;5013775;28;20045;-83
2022/06/17 06:09:25;;;;;;;2.20;1.45;;;;;;;;;;5014221;28;20033;-83
2022/06/17 06:11:51;;;;;;;4.68;1.55;;;29.30;41.60;;;;;;5013718;28;20326;-85
2022/06/17 06:14:17;;;;;;;1.90;1.48;;;30.50;38.90;;;;;;5013433;28;20043;-84
2022/06/17 06:16:43;;;;;;;3.67;1.08;;;30.40;38.50;;;;;;5012943;28;20102;-82
2022/06/17 06:19:08;;;;;;;3.75;1.50;;;30.20;38.00;;;;;;5011857;28;20105;-83
2022/06/17 06:21:34;;;;;;;5.03;1.23;;;30.10;38.10;;;;;;5012962;28;20022;-84
2022/06/17 06:24:00;;;;;;;4.88;1.35;;;;;;;;;;5013751;28;20042;-84
2022/06/17 06:26:26;;;;;;;6.90;1.30;;;33.50;37.60;;;;;;5015283;28;20435;-85
2022/06/17 06:28:52;;;;;;;5.17;1.13;;;33.90;35.90;;;;;;5013715;28;20034;-85
2022/06/17 06:31:28;;;;;;;2.80;1.00;;;35.90;33.20;;;;;;5009771;28;20054;-85
2022/06/17 06:33:54;;;;;;;5.72;1.40;;;37.40;32.30;;;;;;5012571;28;20287;-85
2022/06/17 06:36:20;;;;;;;2.80;1.00;;;37.60;30.60;;;;;;5014655;28;20144;-85
2022/06/17 06:38:47;;;;;;;4.03;1.47;;;38.60;30.80;;;;;;5014854;28;20088;-84
2022/06/17 06:41:13;;;;;;;4.32;1.75;;;38.60;29.70;;;;;;5014511;28;20334;-86
2022/06/17 06:43:39;;;;;;;3.35;0.90;;;38.00;29.40;;;;;;5023587;28;20026;-88
2022/06/17 06:46:13;;;;;;;3.33;1.15;;;37.80;29.70;;;;;;5023205;28;20025;-84
2022/06/17 06:48:39;;;;;;;3.97;1.10;;;;;;;;;;5010796;28;20431;-85
2022/06/17 06:51:05;;;;;;;7.53;1.55;;;38.30;29.70;;;;;;4996751;28;20411;-86
2022/06/17 06:53:31;;;;;;;5.05;1.48;;;39.40;28.90;;;;;;4996999;28;20571;-85
2022/06/17 06:55:57;;;;;;;2.63;1.58;;;39.50;28.60;;;;;;5014089;28;20049;-85
2022/06/17 06:58:25;;;;;;;6.78;1.13;;;39.10;28.40;;;;;;5013939;28;20026;-87
2022/06/17 07:00:54;;;;;;;7.68;1.23;;;38.60;29.10;;;;;;5012842;28;20384;-86
2022/06/17 07:03:20;;;;;;;3.28;1.00;;;38.30;29.40;;;;;;4996065;28;20026;-86
2022/06/17 07:05:56;;;;;;;5.18;1.50;;;38.70;29.50;;;;;;5012874;28;20038;-85
2022/06/17 07:08:26;;;;;;;2.50;1.40;;;39.70;29.40;;;;;;5006555;28;20041;-85
2022/06/17 07:10:54;;;;;;;1.98;1.00;;;40.20;28.80;;;;;;4996027;28;20030;-85
2022/06/17 07:13:22;;;;;;;3.95;1.38;;;40.30;28.20;;;;;;5015315;28;20069;-85
2022/06/17 07:15:50;;;;;;;2.22;1.00;;;39.00;28.70;;;;;;5017769;28;20033;-84
2022/06/17 07:18:20;;;;;;;1.88;1.10;;;38.20;29.00;;;;;;5018030;28;20387;-83
2022/06/17 07:20:49;;;;;;;4.53;1.00;;;37.40;29.70;;;;;;5014370;28;20018;-84
2022/06/17 07:23:36;;;;;;;6.03;1.42;;;36.90;30.20;;;;;;5013549;28;20062;-84
2022/06/17 07:26:06;;;;;;;4.78;1.30;;;37.20;30.30;;;;;;5001348;28;20030;-85
2022/06/17 07:28:32;;;;;;;7.07;2.30;;;37.20;30.00;;;;;;5014098;28;20431;-82
2022/06/17 07:30:58;;;;;;;2.55;1.35;;;;;;;;;;5024570;28;20376;-85
2022/06/17 07:33:28;;;;;;;3.28;1.58;;;36.20;30.70;;;;;;5011179;28;20077;-84
2022/06/17 07:35:57;;;;;;;5.50;3.17;;;36.00;31.10;;;;;;5008156;28;20053;-85
2022/06/17 07:41:14;;;;;;;5.88;1.90;;;35.10;32.40;;;;;;5021364;28;20070;-85
2022/06/17 07:43:40;;;;;;;7.55;2.03;;;35.50;32.70;;;;;;5030693;28;20029;-85
2022/06/17 07:46:07;;;;;;;4.20;1.48;;;35.40;32.00;;;;;;5011138;28;20026;-85
2022/06/17 07:48:33;;;;;;;4.10;1.88;;;33.80;32.50;;;;;;5009548;28;20479;-85
2022/06/17 07:51:00;;;;;;;6.45;1.80;;;32.20;34.60;;;;;;5028113;28;20060;-85
2022/06/17 07:53:28;;;;;;;2.53;1.95;;;30.60;36.40;;;;;;5002361;28;20065;-85
2022/06/17 07:55:59;;;;;;;6.70;2.10;;;29.30;38.20;;;;;;5020695;28;22957;-84
2022/06/17 07:58:24;;;;;;;6.88;2.58;;;28.20;39.70;;;;;;5021785;28;20025;-85
2022/06/17 08:00:51;;;;;;;5.40;2.75;;;;;;;;;;5011355;28;20022;-83
2022/06/17 08:03:17;;;;;;;6.15;1.98;;;;;;;;;;5014252;28;20026;-85
2022/06/17 08:05:48;;;;;;;6.57;2.22;;;27.40;40.60;;;;;;5019474;28;20128;-85
2022/06/17 08:08:21;;;;;;;5.72;3.20;;;25.90;44.80;;;;;;5020367;28;20033;-84
2022/06/17 08:10:52;;;;;;;5.32;2.47;;;25.50;44.60;;;;;;5020035;28;20072;-84
2022/06/17 08:13:20;;;;;;;4.55;2.58;;;25.10;45.20;;;;;;5009714;28;20038;-86
2022/06/17 08:15:46;;;;;;;7.38;2.28;;;25.50;46.10;;;;;;5000174;28;20018;-85
2022/06/17 08:18:13;;;;;;;4.63;2.00;;;27.30;44.30;;;;;;5012726;28;20084;-85
2022/06/17 08:20:39;;;;;;;2.83;1.63;;;29.10;40.50;;;;;;5021014;28;20259;-83
2022/06/17 08:23:06;;;;;;;6.47;1.83;;;30.40;39.20;;;;;;5022259;28;20036;-85
2022/06/17 08:25:35;;;;;;;3.70;1.80;;;32.50;36.60;;;;;;5021767;28;20049;-84
2022/06/17 08:28:03;;;;;;;3.88;1.55;;;33.70;34.80;;;;;;5002660;28;20128;-86
2022/06/17 08:30:35;;;;;;;3.13;1.45;;;33.60;34.30;;;;;;5012057;28;20072;-85
2022/06/17 08:33:03;;;;;;;7.03;1.77;;;33.00;34.00;;;;;;5021210;28;20076;-84
2022/06/17 08:35:34;;;;;;;3.83;1.10;;;32.40;35.00;;;;;;5019549;28;20025;-86
2022/06/17 08:38:17;;;;;;;3.38;1.50;;;32.30;34.40;;;;;;5019370;28;20025;-84
2022/06/17 08:40:55;;;;;;;5.22;1.60;;;31.20;34.90;;;;;;5019564;28;20467;-84
2022/06/17 08:43:55;;;;;;;3.75;1.70;;;30.20;36.90;;;;;;5018610;28;20029;-86
2022/06/17 08:46:44;;;;;;;2.53;1.48;;;29.50;37.40;;;;;;5018034;28;20022;-84
2022/06/17 08:49:34;;;;;;;4.05;1.77;;;28.00;39.00;;;;;;5019119;28;20057;-86
2022/06/17 08:52:14;;;;;;;5.05;2.00;;;26.70;40.60;;;;;;5018954;28;20109;-84
2022/06/17 08:54:49;;;;;;;7.30;3.55;;;26.10;42.60;;;;;;5023857;28;20038;-86
2022/06/17 08:57:19;;;;;;;2.05;1.58;;;25.60;43.30;;;;;;5023652;28;20030;-82
2022/06/17 08:59:59;;;;;;;4.32;1.98;;;;;;;;;;5004431;28;20479;-86
2022/06/17 09:02:37;;;;;;;12.90;2.30;;;;;;;;;;5017883;28;20361;-83
2022/06/17 09:05:09;;;;;;;12.20;2.60;;;;;;;;;;5019290;28;20030;-82
2022/06/17 09:07:35;;;;;;;12.25;2.75;;;;;;;;;;5016916;28;20121;-80
2022/06/17 09:10:01;;;;;;;11.18;2.72;;;24.50;44.80;;;;;;5016742;28;20022;-81
2022/06/17 09:13:11;;;;;;;6.38;2.13;;;17.20;80.00;;;;;;5019568;28;20537;-82
2022/06/17 09:15:42;;;;;;;10.93;3.10;;;16.40;81.90;;;;;;4990540;28;20034;-81
2022/06/17 09:18:19;;;;;;;18.17;13.15;;;16.20;87.70;;;;;;5016538;28;20107;-81
2022/06/17 09:20:48;;;;;;;6.25;3.35;;;16.30;90.10;;;;;;5016735;28;20026;-80
2022/06/17 09:23:19;;;;;;;3.00;2.40;;;16.60;90.80;;;;;;5020052;28;20038;-80
2022/06/17 09:25:48;;;;;;;5.68;2.40;;;17.00;89.90;;;;;;5019503;28;20104;-80
2022/06/17 09:28:24;;;;;;;3.67;2.30;;;17.20;90.20;;;;;;5000070;28;20026;-80
2022/06/17 09:30:58;;;;;;;5.97;3.15;;;17.60;90.60;;;;;;5016682;28;20026;-81
2022/06/17 09:33:38;;;;;;;5.93;3.10;;;18.40;90.10;;;;;;5018058;28;20034;-80
2022/06/17 09:36:28;;;;;;;7.55;3.05;;;19.20;88.80;;;;;;5016762;28;20097;-81
2022/06/17 09:39:04;;;;;;;5.95;3.78;;;20.00;84.20;;;;;;5018516;28;20053;-82
2022/06/17 09:41:39;;;;;;;5.72;3.20;;;21.00;82.00;;;;;;5014496;28;20036;-80
2022/06/17 09:44:19;;;;;;;6.68;2.70;;;22.50;79.00;;;;;;4998356;28;20516;-81
2022/06/17 09:47:12;;;;;;;5.60;2.90;;;24.60;71.70;;;;;;5017484;28;20105;-81
2022/06/17 09:49:47;;;;;;;3.67;2.28;;;26.80;63.80;;;;;;5017540;28;20069;-83
2022/06/17 09:52:30;;;;;;;5.10;2.45;;;28.60;55.90;;;;;;5016596;28;20505;-83
2022/06/17 09:55:23;;;;;;;2.58;1.58;;;29.80;50.50;;;;;;5018440;28;20030;-82
2022/06/17 09:58:05;;;;;;;5.30;2.45;;;30.50;55.00;;;;;;5017752;28;20029;-83
2022/06/17 10:00:55;;;;;;;7.78;2.30;;;30.90;45.90;;;;;;5005053;28;20445;-82
2022/06/17 10:03:27;;;;;;;1.52;1.33;;;31.00;42.50;;;;;;5017767;28;20057;-82
2022/06/17 10:06:01;;;;;;;6.45;1.80;;;30.50;42.70;;;;;;5017347;28;20507;-85
2022/06/17 10:08:32;;;;;;;3.78;1.50;;;30.60;42.70;;;;;;4996515;28;20022;-85
2022/06/17 10:11:14;;;;;;;3.10;1.70;;;31.30;41.70;;;;;;5005947;28;20441;-82
2022/06/17 10:13:40;;;;;;;6.97;2.17;;;;;;;;;;5018429;28;20061;-82
2022/06/17 10:19:02;;;;;;;4.05;1.85;;;;;;;;;;5025172;28;20040;-82
2022/06/17 10:21:39;;;;;;;1.65;1.45;;;;;;;;;;5007273;28;20058;-83
2022/06/17 10:24:16;;;;;;;;;;;34.20;39.30;;;;;;5010178;28;20446;-83
2022/06/17 10:27:29;;;;;;;5.03;1.83;;;34.20;40.30;;;;;;5008819;28;20011;-83
2022/06/17 10:30:04;;;;;;;5.43;1.55;;;34.50;37.60;;;;;;4919256;29;20047;-82
2022/06/17 10:32:34;;;;;;;4.57;1.52;;;33.60;36.20;;;;;;4923489;29;20031;-83
2022/06/17 10:35:03;;;;;;;15.93;1.92;;;32.00;38.70;;;;;;4911445;29;20414;-82
2022/06/17 10:37:30;;;;;;;2.22;1.52;;;;;;;;;;4919445;29;20067;-84
2022/06/17 10:39:57;;;;;;;4.78;2.50;;;;;;;;;;4917029;29;20092;-84
2022/06/17 10:42:25;;;;;;;2.85;1.77;;;30.70;39.20;;;;;;4921785;29;20083;-83
2022/06/17 10:44:56;;;;;;;2.88;1.83;;;26.80;45.20;;;;;;4919211;29;20046;-83
2022/06/17 10:47:30;;;;;;;2.15;1.85;;;25.70;47.50;;;;;;4918756;29;20040;-82
2022/06/17 10:50:22;;;;;;;5.97;2.60;;;25.30;48.60;;;;;;4904979;29;20036;-82
2022/06/17 10:53:07;;;;;;;4.18;1.98;;;;;;;;;;4899948;29;20038;-82
2022/06/17 10:55:48;;;;;;;3.03;2.08;;;24.70;49.00;;;;;;4919844;29;20028;-81
2022/06/17 10:58:23;;;;;;;2.50;1.90;;;22.40;54.70;;;;;;4923761;29;20028;-82
2022/06/17 11:01:15;;;;;;;5.00;2.10;;;;;;;;;;4980603;28;20112;-82
2022/06/17 11:03:42;;;;;;;4.18;2.70;;;;;;;;;;4957378;29;20031;-83
2022/06/17 11:06:24;;;;;;;4.75;2.55;;;21.80;58.70;;;;;;4957450;28;20044;-82
2022/06/17 11:09:12;;;;;;;5.47;2.53;;;21.40;61.40;;;;;;4960568;28;20043;-81
2022/06/17 11:14:54;;;;;;;3.50;2.72;;;20.90;62.90;;;;;;4893919;29;20048;-84
2022/06/17 11:17:34;;;;;;;2.42;1.92;;;20.80;63.70;;;;;;4899539;29;20025;-81
2022/06/17 11:20:26;;;;;;;3.03;2.05;;;20.80;63.20;;;;;;4884075;29;20059;-82
2022/06/17 11:23:04;;;;;;;4.35;2.67;;;20.80;63.60;;;;;;4862464;29;20061;-82
2022/06/17 11:25:33;;;;;;;5.03;2.40;;;;;;;;;;4895998;29;20189;-84
2022/06/17 11:28:12;;;;;;;5.68;3.03;;;;;;;;;;4890189;29;20036;-83
2022/06/17 11:30:52;;;;;;;6.00;3.25;;;20.70;65.20;;;;;;4886372;29;20033;-82
2022/06/17 11:33:28;;;;;;;9.90;3.97;;;18.90;74.80;;;;;;4881903;29;20132;-83
2022/06/17 11:36:03;;;;;;;6.30;4.15;;;18.00;80.10;;;;;;4897651;29;20032;-82
2022/06/17 11:38:31;;;;;;;4.20;3.35;;;17.50;83.30;;;;;;4895752;29;20079;-80
2022/06/17 11:41:00;;;;;;;5.78;3.90;;;17.30;84.90;;;;;;4918605;29;20040;-81
2022/06/17 11:43:42;;;;;;;16.63;6.65;;;17.00;87.20;;;;;;4916683;29;20024;-84
2022/06/17 11:46:12;;;;;;;14.35;5.00;;;16.70;90.30;;;;;;4992298;28;20456;-80
2022/06/17 11:48:41;;;;;;;16.02;3.70;;;16.20;91.10;;;;;;5012387;28;20014;-80
2022/06/17 11:51:38;;;;;;;15.25;5.25;;;15.40;91.70;;;;;;5011916;28;20388;-82
2022/06/17 11:54:37;;;;;;;;;;;;;;;;;;;;;
2022/06/17 11:57:30;;;;;;;8.23;3.40;;;14.60;96.10;;;;;;5011725;28;20034;-79
2022/06/17 12:00:04;;;;;;;7.05;4.28;;;14.80;96.50;;;;;;5012315;28;20029;-78
2022/06/17 12:02:30;;;;;;;9.02;4.40;;;14.80;97.50;;;;;;5012072;28;20037;-78
2022/06/17 12:05:22;;;;;;;10.02;4.22;;;15.10;98.50;;;;;;5020017;28;20439;-79
2022/06/17 12:08:00;;;;;;;7.50;3.60;;;15.20;98.30;;;;;;5011732;28;20054;-79
2022/06/17 12:10:50;;;;;;;9.20;4.10;;;15.30;99.50;;;;;;5011560;28;20033;-80
2022/06/17 12:13:36;;;;;;;11.30;5.22;;;15.50;99.20;;;;;;4994874;28;20026;-80
2022/06/17 12:16:15;;;;;;;12.13;5.68;;;15.80;99.90;;;;;;5001560;28;20037;-77
2022/06/17 12:18:52;;;;;;;15.00;6.85;;;16.10;99.90;;;;;;5015213;28;20026;-78
2022/06/17 12:21:30;;;;;;;11.68;4.53;;;16.60;99.90;;;;;;5014351;28;20402;-77
2022/06/17 12:24:24;;;;;;;10.02;3.92;;;16.80;99.00;;;;;;5015009;28;20109;-78
2022/06/17 12:27:08;;;;;;;9.35;4.72;;;16.50;98.00;;;;;;5015123;28;20025;-79
2022/06/17 12:30:10;;;;;;;6.55;3.72;;;16.40;99.30;;;;;;5001980;28;20026;-79
2022/06/17 12:32:38;;;;;;;6.07;3.55;;;16.40;97.70;;;;;;5014706;28;20041;-79
2022/06/17 12:35:14;;;;;;;7.57;4.22;;;16.20;97.50;;;;;;5015199;28;20491;-78
2022/06/17 12:38:10;;;;;;;5.55;4.07;;;16.10;98.50;;;;;;5014867;28;20041;-79
2022/06/17 12:40:39;;;;;;;9.80;2.97;;;16.10;98.80;;;;;;5009323;28;20025;-78
2022/06/17 12:43:32;;;;;;;6.07;2.80;;;15.80;98.10;;;;;;5000790;28;20022;-78
2022/06/17 12:46:02;;;;;;;7.57;2.95;;;15.60;97.50;;;;;;4997076;28;20048;-78
2022/06/17 12:48:35;;;;;;;5.47;2.85;;;15.50;97.90;;;;;;5011346;28;20152;-80
2022/06/17 12:54:28;;;;;;;6.18;3.53;;;15.80;98.60;;;;;;5007255;28;20103;-79
2022/06/17 12:57:06;;;;;;;7.03;3.90;;;16.30;97.70;;;;;;5012037;28;20037;-80
2022/06/17 12:59:54;;;;;;;6.35;3.53;;;16.50;97.20;;;;;;5014365;28;20030;-80
2022/06/17 13:02:46;;;;;;;4.90;3.30;;;16.70;97.90;;;;;;4996726;28;20484;-77
2022/06/17 13:05:34;;;;;;;6.55;3.58;;;16.90;98.30;;;;;;5012562;28;20022;-77
2022/06/17 13:08:03;;;;;;;7.18;3.28;;;17.20;97.30;;;;;;5015388;28;20421;-80
2022/06/17 13:11:04;;;;;;;3.90;3.35;;;17.30;95.30;;;;;;5019559;28;20036;-79
2022/06/17 13:13:59;;;;;;;5.60;3.70;;;17.40;96.60;;;;;;5016376;28;20388;-79
2022/06/17 13:16:47;;;;;;;5.32;2.92;;;17.60;94.90;;;;;;5016487;28;20022;-79
2022/06/17 13:19:44;;;;;;;6.47;3.50;;;17.80;94.90;;;;;;5002415;28;20029;-80
2022/06/17 13:22:26;;;;;;;8.05;3.80;;;17.90;95.10;;;;;;5014869;28;20058;-80
2022/06/17 13:24:56;;;;;;;5.30;3.00;;;18.20;95.00;;;;;;5015026;28;20033;-80
2022/06/17 13:27:25;;;;;;;3.88;2.90;;;18.50;93.50;;;;;;4996560;28;20053;-80
2022/06/17 13:30:13;;;;;;;4.70;3.20;;;18.40;93.60;;;;;;5016017;28;20049;-80
2022/06/17 13:32:44;;;;;;;6.93;3.65;;;18.40;93.90;;;;;;5015792;28;20120;-79
2022/06/17 13:35:22;;;;;;;8.90;3.75;;;18.50;92.80;;;;;;5014477;28;20049;-79
2022/06/17 13:37:59;;;;;;;4.75;2.75;;;18.60;92.30;;;;;;5015958;28;20183;-80
2022/06/17 13:40:40;;;;;;;5.30;3.78;;;18.20;92.30;;;;;;5014582;28;20021;-82
2022/06/17 13:43:21;;;;;;;8.75;3.70;;;17.80;93.20;;;;;;5014638;28;20053;-81
2022/06/17 13:45:58;;;;;;;7.40;3.65;;;18.00;93.40;;;;;;5013319;28;20061;-79
2022/06/17 13:48:52;;;;;;;4.72;3.30;;;18.20;93.00;;;;;;5013913;28;20427;-79
2022/06/17 13:51:59;;;;;;;6.00;3.45;;;17.80;92.20;;;;;;5011340;28;20069;-81